Airfield :
LOGIN :

Register | Disclaimer

   EN    FR    IT 

 










Legend :    VFR   Marginal VFR   IFR   Intensive IFR   Very Intensive IFR
Visi :
Ceiling :
>= 8 km
>= 3000ft
5 to 8 km
1000 to 3000 ft
1500m to 5 km
500 to 1000 ft
800 to 1500m
200 to 500 ft
< 800m
< 200 ft
Symbols :   Thunderstorms  Fog  Heavy snow  Heavy precipitations  Wind > 20 kt
SIGMETs :     Misc.  Thunderstorms  Icing  Turbulence  Mountain Waves  Volcanic Ashes






- Airport Elevation : 75 ft
- IATA code : YEO


EGDY - RNAS Yeovilton

CURRENT METAR :
  • 291150Z 30008KT 9999 FEW014 BKN120 09/06 Q1004 TEMPO 6000 SHRA FEW010 SCT018TCU BLU WHT

EXPIRED METARs :
  • 291120Z 30010KT 8000 // ///010 SCT020 BKN100 09/06 Q1004 BECMG NSW SCT025 RMK WHT BLU
  • 291050Z 27005KT 8000 // BKN009 SCT020 09/08 Q1004 BECMG 4000 RADZ FEW008 SCT020 RMK WHT TEMPO GRN
  • 291020Z 26007KT 5000 -DZ SCT009 09/08 Q1004 BECMG 4000 RADZ FEW008 SCT020 RMK GRN TEMPO WHT
  • 291007Z 26006KT 4000 RADZ SCT009 BKN022 09/08 Q1004 BECMG NSW FEW008 SCT020 RMK GRN BECMG WHT
  • 290950Z 24006KT 8000 -DZ FEW009 FEW018CB SCT022 09/08 Q1004 NOSIG RMK WHT WHT
  • 290920Z 22003KT 9999 FEW007 09/08 Q1004 TEMPO -RA 6000 FEW008 SCT020 RMK BLU TEMPO WHT
  • 290900Z 18004KT 8000 -RA FEW008 FEW018CB SCT025 09/08 Q1004 TEMPO -RA 6000 FEW008 SCT020 RMK BLU TEMPO WHT
  • 290820Z 22002KT 4000 RA FEW008 SCT025 OVC050 08/08 Q1004 NOSIG RMK GRN GRN
  • 290750Z 26002KT 9000 -DZ FEW008 OVC040 08/08 Q1004 TEMPO 6000 RA SCT008 RMK BLU TEMPO GRN
  • 290720Z AUTO 28002KT 9999 // FEW016/// OVC033/// 08/07 Q1005

TAF TAF EGDY
Valid from the 29 at 12:00 until the 29 at 21:00 UTC


291114Z 2912/2921 27005KT 9999 NSW SCT025
TEMPO 2912/2919 6000 SHRA SCT020TCU
PROB30
TEMPO 2914/2917 25010G20KT 4000 +SHRAGS SCT008 BKN016CB



MET'MAP, your aeronautical weather chart ! - Copyright ORBIFLY December 2007 - Disclaimer

ORBIFLY MET'MAP TEAM :

Programming & Development : Alexandra Zaïnal
Original concept : Baudouin d'Aumeries
Technical & hardware support : Manuel Goepfert
Assistance : Marc-Olivier Méhu




SOURCES & CREDITS :

   NOAA